Time;durP1;ratioP1;P1;durP2;ratioP2;P2;SDS_P1;SDS_P2;PMS_P1;PMS_P2;Temp;Humidity;BMP_temperature;BMP_pressure;BME280_temperature;BME280_humidity;BME280_pressure;Samples;Min_cycle;Max_cycle;Signal;HPM_P1;HPM_P2
2022/02/28 00:01:12;;;;;;;18.00;10.30;;;0.40;99.90;;;;;;5051412;28;20556;-66
2022/02/28 00:03:39;;;;;;;16.40;9.70;;;0.40;99.90;;;;;;5004986;28;20040;-65
2022/02/28 00:06:07;;;;;;;16.17;8.85;;;0.40;99.90;;;;;;5058831;28;20388;-66
2022/02/28 00:08:34;;;;;;;17.35;9.15;;;0.40;99.90;;;;;;5063633;28;20052;-65
2022/02/28 00:11:01;;;;;;;21.30;11.18;;;0.30;99.90;;;;;;5050416;28;20059;-65
2022/02/28 00:13:29;;;;;;;21.33;10.95;;;0.30;99.90;;;;;;5037587;28;20154;-65
2022/02/28 00:15:57;;;;;;;17.48;9.52;;;0.20;99.90;;;;;;5070622;28;20079;-66
2022/02/28 00:18:25;;;;;;;18.20;9.07;;;0.20;99.90;;;;;;5071637;28;20091;-66
2022/02/28 00:20:53;;;;;;;18.88;10.15;;;0.20;99.90;;;;;;5071364;28;20064;-65
2022/02/28 00:23:21;;;;;;;19.33;9.30;;;0.10;99.90;;;;;;5070439;28;20138;-65
2022/02/28 00:25:48;;;;;;;17.70;9.30;;;0.10;99.90;;;;;;5053175;28;20518;-65
2022/02/28 00:28:16;;;;;;;20.05;9.82;;;0.10;99.90;;;;;;5071664;28;20068;-65
2022/02/28 00:30:44;;;;;;;15.38;9.32;;;0.00;99.90;;;;;;5067733;28;20119;-65
2022/02/28 00:33:12;;;;;;;19.08;9.77;;;0.00;99.90;;;;;;5062454;28;20059;-66
2022/02/28 00:35:40;;;;;;;17.92;9.70;;;0.00;99.90;;;;;;5069603;28;20127;-66
2022/02/28 00:38:08;;;;;;;16.23;9.40;;;-0.10;99.90;;;;;;5038549;28;20045;-65
2022/02/28 00:40:38;;;;;;;16.92;9.65;;;-0.10;99.90;;;;;;5069595;28;20036;-65
2022/02/28 00:43:05;;;;;;;17.65;10.02;;;-0.10;99.90;;;;;;5066688;28;20044;-64
2022/02/28 00:45:33;;;;;;;18.08;10.27;;;-0.10;99.90;;;;;;5052115;28;20040;-65
2022/02/28 00:48:01;;;;;;;14.57;8.73;;;-0.10;99.90;;;;;;5071074;28;20403;-63
2022/02/28 00:50:28;;;;;;;19.35;10.38;;;-0.10;99.90;;;;;;5052748;28;20352;-65
2022/02/28 00:52:56;;;;;;;17.60;10.27;;;-0.10;99.90;;;;;;5064909;28;20053;-65
2022/02/28 00:55:24;;;;;;;18.27;9.95;;;-0.10;99.90;;;;;;5071258;28;20127;-65
2022/02/28 00:57:52;;;;;;;18.83;10.13;;;-0.10;99.90;;;;;;5049004;28;20047;-65
2022/02/28 01:00:20;;;;;;;20.10;9.65;;;-0.10;99.90;;;;;;5070635;28;20048;-65
2022/02/28 01:02:52;;;;;;;20.13;9.60;;;-0.10;99.90;;;;;;5070485;28;20104;-65
2022/02/28 01:05:21;;;;;;;16.80;9.73;;;-0.10;99.90;;;;;;5072831;28;20148;-65
2022/02/28 01:07:50;;;;;;;17.63;9.70;;;-0.10;99.90;;;;;;5074488;28;20036;-66
2022/02/28 01:10:20;;;;;;;19.55;10.30;;;-0.10;99.90;;;;;;5058284;28;20068;-66
2022/02/28 01:12:49;;;;;;;15.50;9.70;;;-0.10;99.90;;;;;;5076916;28;20044;-65
2022/02/28 01:15:19;;;;;;;16.02;9.52;;;-0.10;99.90;;;;;;5074809;28;20056;-65
2022/02/28 01:17:50;;;;;;;19.30;9.52;;;-0.10;99.90;;;;;;5040613;28;20438;-66
2022/02/28 01:20:18;;;;;;;17.65;10.15;;;-0.10;99.90;;;;;;5071173;28;20135;-66
2022/02/28 01:22:45;;;;;;;23.33;10.80;;;-0.20;99.90;;;;;;5045234;28;20079;-64
2022/02/28 01:25:13;;;;;;;21.55;9.93;;;-0.20;99.90;;;;;;5051937;28;20123;-64
2022/02/28 01:27:42;;;;;;;19.80;9.45;;;-0.20;99.90;;;;;;5075179;28;20048;-65
2022/02/28 01:30:09;;;;;;;16.70;9.65;;;-0.20;99.90;;;;;;5070394;28;20515;-65
2022/02/28 01:32:37;;;;;;;20.30;10.38;;;-0.20;99.90;;;;;;5074398;28;20049;-65
2022/02/28 01:35:06;;;;;;;15.13;9.07;;;-0.20;99.90;;;;;;5057592;28;20052;-65
2022/02/28 01:37:59;;;;;;;18.58;9.50;;;-0.20;99.90;;;;;;5072038;28;20542;-64
2022/02/28 01:40:27;;;;;;;20.38;9.57;;;-0.20;99.90;;;;;;5075735;28;20028;-65
2022/02/28 01:42:55;;;;;;;18.52;10.45;;;-0.20;99.90;;;;;;5055948;28;20051;-65
2022/02/28 01:45:23;;;;;;;15.88;9.52;;;-0.20;99.90;;;;;;5074327;28;20474;-65
2022/02/28 01:47:53;;;;;;;17.67;9.57;;;-0.20;99.90;;;;;;5074316;28;20151;-65
2022/02/28 01:50:21;;;;;;;18.73;9.50;;;-0.20;99.90;;;;;;5039762;28;20460;-65
2022/02/28 01:52:49;;;;;;;16.15;8.55;;;-0.30;99.90;;;;;;5054436;28;20088;-66
2022/02/28 01:55:18;;;;;;;17.70;9.70;;;-0.30;99.90;;;;;;5051779;28;20218;-65
2022/02/28 01:57:46;;;;;;;17.17;9.25;;;-0.40;99.90;;;;;;5067718;28;20079;-66
2022/02/28 02:00:17;;;;;;;16.40;9.20;;;-0.50;99.90;;;;;;5054862;28;20102;-66
2022/02/28 02:02:45;;;;;;;16.40;9.38;;;-0.50;99.90;;;;;;5033713;28;20051;-66
2022/02/28 02:05:13;;;;;;;15.45;8.88;;;-0.50;99.90;;;;;;5056387;28;20056;-64
2022/02/28 02:07:41;;;;;;;16.00;8.68;;;-0.50;99.90;;;;;;5071086;28;20390;-65
2022/02/28 02:10:11;;;;;;;18.52;9.27;;;-0.60;99.90;;;;;;5055800;28;20064;-65
2022/02/28 02:12:39;;;;;;;16.10;9.40;;;-0.70;99.90;;;;;;5073091;28;20060;-65
2022/02/28 02:15:10;;;;;;;17.83;9.73;;;-0.70;99.90;;;;;;5056702;28;20462;-65
2022/02/28 02:17:39;;;;;;;17.37;9.50;;;-0.70;99.90;;;;;;5054502;28;20344;-65
2022/02/28 02:20:26;;;;;;;20.98;10.68;;;-0.70;99.90;;;;;;5074716;28;20466;-65
2022/02/28 02:23:02;;;;;;;18.45;9.43;;;-0.80;99.90;;;;;;5060642;28;20371;-65
2022/02/28 02:25:31;;;;;;;20.45;10.15;;;-0.80;99.90;;;;;;5056913;28;20047;-65
2022/02/28 02:27:59;;;;;;;19.35;9.90;;;-0.80;99.90;;;;;;5055645;28;20032;-65
2022/02/28 02:30:27;;;;;;;21.98;10.35;;;-0.90;99.90;;;;;;5056093;28;20471;-65
2022/02/28 02:32:57;;;;;;;15.85;9.07;;;-0.90;99.90;;;;;;5062133;28;20465;-65
2022/02/28 02:35:25;;;;;;;18.38;9.50;;;-0.90;99.90;;;;;;5056282;28;20086;-65
2022/02/28 02:37:52;;;;;;;18.35;10.15;;;-0.90;99.90;;;;;;5056278;28;20468;-65
2022/02/28 02:40:20;;;;;;;18.13;9.80;;;-0.90;99.90;;;;;;5055986;28;20048;-65
2022/02/28 02:42:47;;;;;;;18.45;9.82;;;-0.90;99.90;;;;;;5053825;28;20124;-65
2022/02/28 02:45:15;;;;;;;17.90;9.82;;;-0.90;99.90;;;;;;5044904;28;20041;-65
2022/02/28 02:47:42;;;;;;;21.52;10.70;;;-0.90;99.90;;;;;;5055149;28;20127;-65
2022/02/28 02:50:13;;;;;;;19.77;11.00;;;-1.00;99.90;;;;;;5053722;28;20044;-65
2022/02/28 02:52:41;;;;;;;19.23;11.00;;;-1.00;99.90;;;;;;5054108;28;20422;-66
2022/02/28 02:55:09;;;;;;;18.88;10.00;;;-1.00;99.90;;;;;;5055933;28;20041;-66
2022/02/28 02:57:37;;;;;;;19.33;9.80;;;-1.00;99.90;;;;;;5053410;28;20074;-65
2022/02/28 03:00:09;;;;;;;16.40;9.60;;;-1.00;99.90;;;;;;5055551;28;20067;-65
2022/02/28 03:02:54;;;;;;;17.73;9.95;;;-1.00;99.90;;;;;;5055253;28;20040;-65
2022/02/28 03:05:22;;;;;;;17.95;9.52;;;-1.10;99.90;;;;;;5073165;28;20044;-66
2022/02/28 03:07:49;;;;;;;17.90;9.65;;;-1.10;99.90;;;;;;5053842;28;20044;-66
2022/02/28 03:10:17;;;;;;;19.92;10.82;;;-1.10;99.90;;;;;;5054027;28;20044;-65
2022/02/28 03:12:45;;;;;;;20.95;11.02;;;-1.20;99.90;;;;;;5085934;28;20049;-65
2022/02/28 03:15:13;;;;;;;18.23;9.05;;;-1.20;99.90;;;;;;5048514;28;20045;-65
2022/02/28 03:17:40;;;;;;;18.05;9.70;;;-1.20;99.90;;;;;;5046806;28;20044;-65
2022/02/28 03:20:08;;;;;;;17.80;10.10;;;-1.20;99.90;;;;;;5053285;28;20048;-65
2022/02/28 03:22:36;;;;;;;19.10;11.02;;;-1.10;99.90;;;;;;5053772;28;20048;-65
2022/02/28 03:25:05;;;;;;;25.38;10.65;;;-1.20;99.90;;;;;;5050575;28;20037;-65
2022/02/28 03:27:39;;;;;;;19.60;10.63;;;-1.20;99.90;;;;;;5054430;28;20430;-65
2022/02/28 03:30:08;;;;;;;18.30;9.90;;;-1.20;99.90;;;;;;5042005;28;20593;-65
2022/02/28 03:32:36;;;;;;;19.67;11.38;;;-1.30;99.90;;;;;;5054250;28;20139;-65
2022/02/28 03:35:04;;;;;;;18.73;10.45;;;-1.30;99.90;;;;;;5053481;28;20570;-65
2022/02/28 03:37:32;;;;;;;21.48;10.63;;;-1.30;99.90;;;;;;5041317;28;20052;-65
2022/02/28 03:40:00;;;;;;;21.65;11.02;;;-1.30;99.90;;;;;;5053931;28;20048;-65
2022/02/28 03:42:31;;;;;;;16.52;10.25;;;-1.30;99.90;;;;;;5053360;28;20045;-65
2022/02/28 03:44:59;;;;;;;20.17;10.15;;;-1.30;99.90;;;;;;5049430;28;20044;-65
2022/02/28 03:47:27;;;;;;;20.88;10.82;;;-1.30;99.90;;;;;;5051730;28;20040;-65
2022/02/28 03:50:34;;;;;;;19.55;10.32;;;-1.30;99.90;;;;;;5065627;28;20135;-65
2022/02/28 03:53:01;;;;;;;17.48;10.48;;;-1.40;99.90;;;;;;5064915;28;20051;-65
2022/02/28 03:55:34;;;;;;;20.35;11.50;;;-1.40;99.90;;;;;;5061010;28;20045;-65
2022/02/28 03:58:02;;;;;;;20.45;10.40;;;-1.30;99.90;;;;;;5053822;28;20060;-65
2022/02/28 04:00:30;;;;;;;21.73;11.73;;;-1.30;99.90;;;;;;5055328;28;20052;-66
2022/02/28 04:02:58;;;;;;;22.63;11.40;;;-1.30;99.90;;;;;;5045879;28;20056;-66
2022/02/28 04:05:26;;;;;;;23.92;11.52;;;-1.20;99.90;;;;;;5080769;28;20063;-66
2022/02/28 04:07:59;;;;;;;21.13;11.57;;;-1.20;99.90;;;;;;5058544;28;20526;-65
2022/02/28 04:10:26;;;;;;;23.98;11.90;;;-1.10;99.90;;;;;;5044285;28;20068;-65
2022/02/28 04:12:53;;;;;;;19.58;10.85;;;-1.10;99.90;;;;;;5061578;28;20041;-65
2022/02/28 04:15:22;;;;;;;20.10;11.13;;;-1.10;99.90;;;;;;5060087;28;20501;-66
2022/02/28 04:17:49;;;;;;;24.58;12.40;;;-1.00;99.90;;;;;;5049329;28;20137;-66
2022/02/28 04:20:24;;;;;;;20.80;11.13;;;-1.10;99.90;;;;;;5040979;28;20604;-66
2022/02/28 04:22:52;;;;;;;20.27;10.40;;;-1.00;99.90;;;;;;5045083;28;20068;-65
2022/02/28 04:25:20;;;;;;;18.52;10.32;;;-1.10;99.90;;;;;;5053346;28;20088;-65
2022/02/28 04:27:51;;;;;;;21.58;11.98;;;-1.10;99.90;;;;;;5054831;28;20557;-65
2022/02/28 04:30:20;;;;;;;22.05;10.93;;;-1.10;99.90;;;;;;5053655;28;20390;-65
2022/02/28 04:32:47;;;;;;;21.80;11.40;;;-1.10;99.90;;;;;;5083604;28;20043;-65
2022/02/28 04:35:16;;;;;;;22.77;11.27;;;-1.20;99.90;;;;;;5052113;28;20381;-65
2022/02/28 04:37:56;;;;;;;19.50;10.70;;;-1.20;99.90;;;;;;5047844;28;20037;-66
2022/02/28 04:40:24;;;;;;;20.95;11.77;;;-1.20;99.90;;;;;;5054157;28;20045;-66
2022/02/28 04:42:52;;;;;;;21.95;11.88;;;-1.30;99.90;;;;;;5043397;28;20504;-64
2022/02/28 04:45:20;;;;;;;24.38;12.05;;;-1.30;99.90;;;;;;5045833;28;20067;-65
2022/02/28 04:47:50;;;;;;;22.10;11.85;;;-1.40;99.90;;;;;;5041976;28;20091;-64
2022/02/28 04:50:36;;;;;;;22.08;11.50;;;-1.40;99.90;;;;;;5045733;28;20041;-64
2022/02/28 04:53:03;;;;;;;18.83;11.27;;;-1.40;99.90;;;;;;5046407;28;20088;-66
2022/02/28 04:55:31;;;;;;;23.30;12.23;;;-1.50;99.90;;;;;;5033508;28;20477;-66
2022/02/28 04:57:58;;;;;;;26.83;12.60;;;-1.50;99.90;;;;;;5045257;28;20067;-66
2022/02/28 05:00:47;;;;;;;23.58;12.18;;;-1.50;99.90;;;;;;5033833;28;20677;-66
2022/02/28 05:03:16;;;;;;;27.05;13.63;;;-1.60;99.90;;;;;;5030508;28;20045;-66
2022/02/28 05:05:44;;;;;;;26.00;12.90;;;-1.60;99.90;;;;;;5029945;28;20054;-65
2022/02/28 05:08:12;;;;;;;32.55;15.48;;;-1.60;99.90;;;;;;5031321;28;20527;-65
2022/02/28 05:10:40;;;;;;;29.80;14.35;;;-1.60;99.90;;;;;;5031638;28;20051;-66
2022/02/28 05:13:14;;;;;;;28.08;13.48;;;-1.60;99.90;;;;;;5035314;28;20532;-65
2022/02/28 05:15:42;;;;;;;26.58;13.50;;;-1.60;99.90;;;;;;5032311;28;20123;-63
2022/02/28 05:18:10;;;;;;;27.85;15.40;;;-1.60;99.90;;;;;;5034997;28;20032;-64
2022/02/28 05:20:39;;;;;;;28.20;14.35;;;-1.60;99.90;;;;;;5029252;28;20045;-64
2022/02/28 05:23:06;;;;;;;30.65;14.68;;;-1.60;99.90;;;;;;5033400;28;20049;-64
2022/02/28 05:25:34;;;;;;;31.50;14.73;;;-1.60;99.90;;;;;;5034443;28;20477;-65
2022/02/28 05:28:21;;;;;;;29.73;15.48;;;-1.60;99.90;;;;;;5034536;28;20460;-66
2022/02/28 05:30:49;;;;;;;30.92;14.70;;;-1.60;99.90;;;;;;5033237;28;20129;-65
2022/02/28 05:33:19;;;;;;;38.00;15.20;;;-1.60;99.90;;;;;;5036179;28;20036;-65
2022/02/28 05:35:54;;;;;;;29.35;14.10;;;-1.60;99.90;;;;;;5031082;28;20045;-66
2022/02/28 05:38:31;;;;;;;26.95;13.48;;;-1.70;99.90;;;;;;5037590;28;20071;-66
2022/02/28 05:41:03;;;;;;;32.42;15.32;;;-1.70;99.90;;;;;;5033651;28;20037;-66
2022/02/28 05:43:36;;;;;;;30.17;14.70;;;-1.70;99.90;;;;;;5032979;28;20033;-66
2022/02/28 05:46:05;;;;;;;28.38;14.57;;;-1.70;99.90;;;;;;5033583;28;20034;-65
2022/02/28 05:48:41;;;;;;;27.20;13.90;;;-1.70;99.90;;;;;;5032221;28;20481;-65
2022/02/28 05:51:13;;;;;;;29.65;13.98;;;-1.70;99.90;;;;;;5027237;28;20038;-66
2022/02/28 05:53:40;;;;;;;25.48;13.45;;;-1.70;99.90;;;;;;5030668;28;20554;-66
2022/02/28 05:56:10;;;;;;;25.98;13.63;;;-1.70;99.90;;;;;;5024720;28;20563;-65
2022/02/28 05:58:37;;;;;;;31.35;16.20;;;-1.80;99.90;;;;;;5024188;28;20068;-66
2022/02/28 06:01:05;;;;;;;39.33;20.05;;;-1.80;99.90;;;;;;5031709;28;20062;-66
2022/02/28 06:03:32;;;;;;;36.63;20.52;;;-1.80;99.90;;;;;;5027622;28;20048;-66
2022/02/28 06:06:04;;;;;;;26.20;12.27;;;-1.80;99.90;;;;;;5029445;28;20038;-66
2022/02/28 06:08:32;;;;;;;28.75;15.82;;;-1.70;99.90;;;;;;5024447;28;20386;-66
2022/02/28 06:10:59;;;;;;;29.58;14.65;;;-1.70;99.90;;;;;;5029991;28;20071;-66
2022/02/28 06:13:26;;;;;;;30.30;14.60;;;-1.70;99.90;;;;;;5031328;28;20050;-66
2022/02/28 06:15:54;;;;;;;28.67;13.57;;;-1.70;99.90;;;;;;5032436;28;20491;-65
2022/02/28 06:18:21;;;;;;;25.70;14.07;;;-1.60;99.90;;;;;;5033313;28;20045;-66
2022/02/28 06:20:49;;;;;;;24.75;13.07;;;-1.60;99.90;;;;;;5028682;28;20512;-66
2022/02/28 06:23:18;;;;;;;29.15;15.50;;;-1.50;99.90;;;;;;5034801;28;20587;-66
2022/02/28 06:25:45;;;;;;;29.20;14.88;;;-1.40;99.90;;;;;;5027042;28;20042;-66
2022/02/28 06:28:17;;;;;;;24.75;13.55;;;-1.40;99.90;;;;;;5027441;28;20362;-65
2022/02/28 06:30:45;;;;;;;;;;;-1.30;99.90;;;;;;5019278;28;20473;-65
2022/02/28 06:33:13;;;;;;;26.20;12.38;;;-1.20;99.90;;;;;;5010844;28;20388;-66
2022/02/28 06:35:44;;;;;;;28.67;13.10;;;-1.10;99.90;;;;;;5032483;28;20136;-66
2022/02/28 06:38:12;;;;;;;24.15;12.38;;;-1.00;99.90;;;;;;5031428;28;20037;-65
2022/02/28 06:40:40;;;;;;;22.02;12.27;;;-1.00;99.90;;;;;;5042153;28;20396;-65
2022/02/28 06:43:07;;;;;;;24.23;13.73;;;-0.90;99.90;;;;;;5029618;28;20052;-65
2022/02/28 06:45:34;;;;;;;26.95;13.38;;;-0.80;99.90;;;;;;5032225;28;20045;-66
2022/02/28 06:48:02;;;;;;;24.15;13.10;;;-0.80;99.90;;;;;;5033376;28;20076;-65
2022/02/28 06:50:29;;;;;;;27.40;13.63;;;-0.70;99.90;;;;;;5031652;28;20052;-65
2022/02/28 06:52:57;;;;;;;22.45;13.07;;;-0.60;99.90;;;;;;5041603;28;20046;-65
2022/02/28 06:55:24;;;;;;;24.67;13.38;;;-0.50;99.90;;;;;;5027420;28;20049;-65
2022/02/28 06:57:52;;;;;;;29.63;13.88;;;-0.50;99.90;;;;;;5033204;28;20072;-65
2022/02/28 07:00:19;;;;;;;30.40;15.30;;;-0.40;99.90;;;;;;5032742;28;20060;-66
2022/02/28 07:03:11;;;;;;;25.30;14.07;;;-0.40;99.90;;;;;;5014799;28;20595;-65
2022/02/28 07:05:40;;;;;;;28.10;14.98;;;-0.30;99.90;;;;;;5031355;28;20049;-65
2022/02/28 07:08:08;;;;;;;28.65;14.40;;;-0.30;99.90;;;;;;5031397;28;20045;-66
2022/02/28 07:10:36;;;;;;;34.15;14.35;;;-0.20;99.90;;;;;;5036105;28;20049;-66
2022/02/28 07:13:05;;;;;;;31.90;16.05;;;-0.20;99.90;;;;;;5035722;28;20037;-65
2022/02/28 07:15:32;;;;;;;30.27;15.77;;;-0.10;99.90;;;;;;5027534;28;20065;-65
2022/02/28 07:18:00;;;;;;;25.52;14.68;;;0.00;99.90;;;;;;5037059;28;20041;-65
2022/02/28 07:20:27;;;;;;;28.30;15.77;;;0.00;99.90;;;;;;5024526;28;20438;-65
2022/02/28 07:22:55;;;;;;;26.90;15.18;;;0.10;99.90;;;;;;5030470;28;20517;-65
2022/02/28 07:25:22;;;;;;;34.25;16.55;;;0.20;99.90;;;;;;5031878;28;20040;-65
2022/02/28 07:27:49;;;;;;;29.30;15.35;;;0.20;99.90;;;;;;5031444;28;20464;-65
2022/02/28 07:30:17;;;;;;;28.63;15.32;;;0.30;99.90;;;;;;5039372;28;20151;-65
2022/02/28 07:32:44;;;;;;;28.35;14.80;;;0.40;99.90;;;;;;5031779;28;20817;-65
2022/02/28 07:35:11;;;;;;;23.35;13.75;;;0.50;99.90;;;;;;5035093;28;20033;-65
2022/02/28 07:37:39;;;;;;;29.88;15.20;;;0.60;99.90;;;;;;5037168;28;20049;-65
2022/02/28 07:40:09;;;;;;;29.20;14.63;;;0.70;99.90;;;;;;5029742;28;20052;-65
2022/02/28 07:42:37;;;;;;;27.92;14.93;;;0.80;99.90;;;;;;5025043;28;20050;-65
2022/02/28 07:45:07;;;;;;;27.38;15.45;;;0.90;99.90;;;;;;5028913;28;20049;-65
2022/02/28 07:47:34;;;;;;;27.70;15.20;;;1.00;99.90;;;;;;5030938;28;20587;-65
2022/02/28 07:50:02;;;;;;;28.40;14.25;;;1.00;99.90;;;;;;5031911;28;20511;-65
2022/02/28 07:52:30;;;;;;;24.42;13.63;;;1.10;99.90;;;;;;5031143;28;20041;-64
2022/02/28 07:54:57;;;;;;;29.00;16.10;;;1.20;99.90;;;;;;5030800;28;20037;-65
2022/02/28 07:57:24;;;;;;;34.30;17.88;;;1.30;99.90;;;;;;5030952;28;20425;-65
2022/02/28 07:59:52;;;;;;;48.03;23.42;;;1.30;99.90;;;;;;5023171;28;20053;-65
2022/02/28 08:02:20;;;;;;;40.22;19.67;;;1.40;99.90;;;;;;5027999;28;20567;-64
2022/02/28 08:04:48;;;;;;;33.20;17.00;;;1.50;99.90;;;;;;5021963;28;20492;-65
2022/02/28 08:07:15;;;;;;;27.23;15.15;;;1.60;99.90;;;;;;5041103;28;20048;-66
2022/02/28 08:09:42;;;;;;;30.35;15.23;;;1.70;99.90;;;;;;5037762;28;20356;-66
2022/02/28 08:12:10;;;;;;;27.88;14.95;;;1.80;99.90;;;;;;5034103;28;20133;-66
2022/02/28 08:14:39;;;;;;;32.70;15.52;;;2.00;99.90;;;;;;5034519;28;20068;-65
2022/02/28 08:17:08;;;;;;;29.50;15.47;;;2.10;99.90;;;;;;5031679;28;20484;-65
2022/02/28 08:19:36;;;;;;;29.25;14.50;;;2.20;99.90;;;;;;5027519;28;20052;-65
2022/02/28 08:22:04;;;;;;;26.80;14.95;;;2.30;99.90;;;;;;5036198;28;20809;-65
2022/02/28 08:24:31;;;;;;;25.55;14.60;;;2.40;99.90;;;;;;5039536;28;20660;-66
2022/02/28 08:26:58;;;;;;;22.55;13.20;;;2.50;99.90;;;;;;5035989;28;20451;-65
2022/02/28 08:29:25;;;;;;;20.58;12.00;;;2.60;99.90;;;;;;5039739;28;20050;-65
2022/02/28 08:31:53;;;;;;;23.80;12.77;;;2.70;99.90;;;;;;5032648;28;20132;-65
2022/02/28 08:34:22;;;;;;;20.25;11.93;;;2.80;99.90;;;;;;5038369;28;20064;-66
2022/02/28 08:36:49;;;;;;;25.42;13.48;;;2.90;99.90;;;;;;5051366;28;20546;-65
2022/02/28 08:39:16;;;;;;;24.92;13.07;;;3.00;99.90;;;;;;5046846;28;20037;-65
2022/02/28 08:41:43;;;;;;;25.75;14.85;;;3.10;99.90;;;;;;5038863;28;20037;-65
2022/02/28 08:44:11;;;;;;;26.83;15.40;;;3.20;99.90;;;;;;5039775;28;20076;-66
2022/02/28 08:46:38;;;;;;;24.13;13.50;;;3.30;99.90;;;;;;5044514;28;20061;-66
2022/02/28 08:49:06;;;;;;;25.05;13.00;;;3.40;99.90;;;;;;5042656;28;20063;-65
2022/02/28 08:51:34;;;;;;;22.35;12.27;;;3.60;99.90;;;;;;5041777;28;20044;-65
2022/02/28 08:54:01;;;;;;;21.63;12.73;;;3.60;99.90;;;;;;5043908;28;20033;-66
2022/02/28 08:56:28;;;;;;;20.73;12.90;;;3.70;99.90;;;;;;5042821;28;20473;-66
2022/02/28 08:58:56;;;;;;;22.58;12.25;;;3.90;99.90;;;;;;5022227;28;20038;-66
2022/02/28 09:01:23;;;;;;;24.67;12.85;;;3.90;99.90;;;;;;5033611;28;20428;-65
2022/02/28 09:03:51;;;;;;;23.35;13.43;;;4.10;99.90;;;;;;5041662;28;20073;-65
2022/02/28 09:06:19;;;;;;;24.17;13.63;;;4.20;99.90;;;;;;5030900;28;20045;-67
2022/02/28 09:08:46;;;;;;;24.20;13.65;;;4.30;99.90;;;;;;5030470;28;20061;-64
2022/02/28 09:11:15;;;;;;;22.65;12.45;;;4.40;99.90;;;;;;5040033;28;20049;-65
2022/02/28 09:13:43;;;;;;;19.42;12.13;;;4.40;99.90;;;;;;5034570;28;20114;-65
2022/02/28 09:16:10;;;;;;;27.65;15.30;;;4.60;99.90;;;;;;5042543;28;20045;-65
2022/02/28 09:18:37;;;;;;;23.17;12.00;;;4.70;99.90;;;;;;5051132;28;20046;-64
2022/02/28 09:21:05;;;;;;;21.02;12.40;;;4.80;99.90;;;;;;5046215;28;20045;-65
2022/02/28 09:23:32;;;;;;;27.52;13.00;;;4.90;99.90;;;;;;5042353;28;20053;-66
2022/02/28 09:26:01;;;;;;;27.08;12.82;;;5.10;99.90;;;;;;5051311;28;20049;-66
2022/02/28 09:28:29;;;;;;;18.80;11.73;;;5.20;99.90;;;;;;5045584;28;20373;-66
2022/02/28 09:30:57;;;;;;;21.50;12.00;;;5.30;99.90;;;;;;5038096;28;20033;-65
2022/02/28 09:33:25;;;;;;;19.85;11.70;;;5.40;99.90;;;;;;5047644;28;20071;-65
2022/02/28 09:35:54;;;;;;;24.67;13.60;;;5.50;99.90;;;;;;5043354;28;20570;-65
2022/02/28 09:38:22;;;;;;;23.70;11.63;;;5.70;99.90;;;;;;5032581;28;20037;-65
2022/02/28 09:40:50;;;;;;;17.17;10.10;;;5.70;99.90;;;;;;5032894;28;20140;-65
2022/02/28 09:43:50;;;;;;;21.88;11.68;;;5.80;99.90;;;;;;5043591;28;20235;-65
2022/02/28 09:46:37;;;;;;;18.52;10.82;;;6.00;99.90;;;;;;5046091;28;20053;-65
2022/02/28 09:49:23;;;;;;;19.27;10.68;;;6.20;99.90;;;;;;5042114;28;20186;-65
2022/02/28 09:52:11;;;;;;;17.65;10.18;;;6.30;99.90;;;;;;5036301;28;20072;-65
2022/02/28 09:54:57;;;;;;;16.75;9.82;;;6.50;99.90;;;;;;5035993;28;20044;-65
2022/02/28 09:57:48;;;;;;;17.95;10.48;;;6.60;99.90;;;;;;5049355;28;20546;-65
2022/02/28 10:00:43;;;;;;;17.42;9.82;;;6.80;99.90;;;;;;5039848;28;20462;-65
2022/02/28 10:03:11;;;;;;;15.65;8.80;;;6.90;99.90;;;;;;5047155;28;20045;-65
2022/02/28 10:05:39;;;;;;;15.02;9.27;;;7.00;99.90;;;;;;5016844;28;20143;-66
2022/02/28 10:08:12;;;;;;;18.75;10.43;;;7.00;99.90;;;;;;5044440;28;20041;-65
2022/02/28 10:10:40;;;;;;;18.25;10.07;;;7.20;99.90;;;;;;5049661;28;20190;-65
2022/02/28 10:13:08;;;;;;;15.95;10.20;;;7.20;99.90;;;;;;5032371;28;20071;-65
2022/02/28 10:15:35;;;;;;;18.50;10.15;;;7.20;99.90;;;;;;5049733;28;20068;-65
2022/02/28 10:18:04;;;;;;;16.90;9.55;;;7.40;99.90;;;;;;5049195;28;20075;-64
2022/02/28 10:20:38;;;;;;;16.67;9.60;;;7.60;99.90;;;;;;5028027;28;20046;-66
2022/02/28 10:23:12;;;;;;;19.00;10.18;;;7.70;99.90;;;;;;5029954;28;20049;-66
2022/02/28 10:26:03;;;;;;;16.42;9.40;;;7.70;99.90;;;;;;5028131;28;20045;-64
2022/02/28 10:29:04;;;;;;;17.05;10.60;;;8.00;99.90;;;;;;5034626;28;20715;-65
2022/02/28 10:32:00;;;;;;;18.52;10.15;;;8.20;99.90;;;;;;5046245;28;20592;-66
2022/02/28 10:38:15;;;;;;;17.08;8.82;;;8.70;99.90;;;;;;5023405;28;20064;-64
2022/02/28 10:40:45;;;;;;;13.50;8.25;;;8.80;99.90;;;;;;5028853;28;20140;-64
2022/02/28 10:43:28;;;;;;;14.05;9.00;;;8.90;99.90;;;;;;5020442;28;20576;-64
2022/02/28 10:45:58;;;;;;;12.70;7.47;;;9.10;99.90;;;;;;5031036;28;20049;-64
2022/02/28 10:48:26;;;;;;;11.57;6.60;;;9.30;99.90;;;;;;5022398;28;20123;-64
2022/02/28 10:50:53;;;;;;;14.40;6.85;;;9.40;99.90;;;;;;5038640;28;20037;-65
2022/02/28 10:53:23;;;;;;;11.55;7.18;;;9.60;99.90;;;;;;5044106;28;20037;-64
2022/02/28 10:55:51;;;;;;;9.90;6.10;;;9.80;99.90;;;;;;5041096;28;20041;-64
2022/02/28 10:58:26;;;;;;;12.27;6.53;;;10.10;99.90;;;;;;5019722;28;20045;-65
2022/02/28 11:01:06;;;;;;;12.13;6.35;;;10.10;99.90;;;;;;5032671;28;20057;-64
2022/02/28 11:03:44;;;;;;;12.90;7.15;;;10.10;99.90;;;;;;5023386;28;20096;-64
2022/02/28 11:06:13;;;;;;;12.13;7.00;;;10.40;99.90;;;;;;5032751;28;20045;-64
2022/02/28 11:08:44;;;;;;;12.43;6.65;;;10.60;99.90;;;;;;5026109;28;20045;-65
2022/02/28 11:11:13;;;;;;;11.70;6.90;;;10.80;99.80;;;;;;5034747;28;20041;-66
2022/02/28 11:13:45;;;;;;;10.35;5.63;;;10.90;98.50;;;;;;5032130;28;20563;-66
2022/02/28 11:16:15;;;;;;;12.57;6.55;;;11.00;98.40;;;;;;5031975;28;20143;-65
2022/02/28 11:18:44;;;;;;;10.50;6.15;;;11.00;96.50;;;;;;5023261;28;20472;-66
2022/02/28 11:21:12;;;;;;;9.88;5.88;;;11.10;95.40;;;;;;5032614;28;20140;-65
2022/02/28 11:23:46;;;;;;;10.48;5.93;;;11.20;95.30;;;;;;5024686;28;20041;-65
2022/02/28 11:26:14;;;;;;;9.30;5.60;;;11.30;93.80;;;;;;5021182;28;20556;-66
2022/02/28 11:28:42;;;;;;;8.25;5.15;;;11.40;93.00;;;;;;5029385;28;20433;-66
2022/02/28 11:31:16;;;;;;;9.35;5.68;;;11.80;92.30;;;;;;5029420;28;20436;-66
2022/02/28 11:33:52;;;;;;;9.55;5.85;;;12.10;91.70;;;;;;5030421;28;20420;-65
2022/02/28 11:36:19;;;;;;;10.32;5.90;;;12.30;90.00;;;;;;5029770;28;20052;-64
2022/02/28 11:38:47;;;;;;;10.10;6.32;;;12.50;89.20;;;;;;5028870;28;20033;-64
2022/02/28 11:41:18;;;;;;;10.10;5.78;;;12.50;86.50;;;;;;5029853;28;20126;-66
2022/02/28 11:43:49;;;;;;;10.50;5.85;;;12.50;85.20;;;;;;5030423;28;20056;-66
2022/02/28 11:46:19;;;;;;;8.83;5.20;;;12.70;84.40;;;;;;5040508;28;20045;-66
2022/02/28 11:48:54;;;;;;;8.05;5.30;;;13.10;83.70;;;;;;5024048;28;20500;-65
2022/02/28 11:51:35;;;;;;;10.20;6.30;;;13.30;83.00;;;;;;5032214;28;20568;-67
2022/02/28 11:54:26;;;;;;;10.02;5.70;;;13.60;83.30;;;;;;5035074;28;20037;-66
2022/02/28 11:56:55;;;;;;;9.85;6.20;;;13.80;82.90;;;;;;5031424;28;20729;-66
2022/02/28 11:59:28;;;;;;;12.20;6.03;;;13.90;82.40;;;;;;5030294;28;20141;-65
2022/02/28 12:02:06;;;;;;;8.75;5.40;;;14.10;80.20;;;;;;5030110;28;20135;-65
2022/02/28 12:04:45;;;;;;;10.00;6.13;;;14.40;79.40;;;;;;5028411;28;20103;-64
2022/02/28 12:07:29;;;;;;;11.27;6.07;;;14.50;77.80;;;;;;5030474;28;20042;-65
2022/02/28 12:10:15;;;;;;;9.60;5.82;;;14.80;76.90;;;;;;5026736;28;20066;-65
2022/02/28 12:12:59;;;;;;;8.38;5.28;;;15.00;75.80;;;;;;5025384;28;20128;-65
2022/02/28 12:15:28;;;;;;;10.52;5.60;;;15.10;75.40;;;;;;5027236;28;20073;-65
2022/02/28 12:18:00;;;;;;;8.65;5.57;;;15.30;73.80;;;;;;5018060;28;20048;-65
2022/02/28 12:20:43;;;;;;;9.85;6.00;;;15.60;71.90;;;;;;5025642;28;20056;-66
2022/02/28 12:23:12;;;;;;;8.93;5.40;;;15.50;72.20;;;;;;5036164;28;20045;-65
2022/02/28 12:25:59;;;;;;;10.85;6.05;;;15.70;73.20;;;;;;5032788;28;20045;-65
2022/02/28 12:28:35;;;;;;;8.68;5.65;;;15.50;70.90;;;;;;5032674;28;20031;-65
2022/02/28 12:31:07;;;;;;;9.65;6.05;;;15.70;72.80;;;;;;5032689;28;20037;-65
2022/02/28 12:33:34;;;;;;;9.87;6.07;;;15.60;72.40;;;;;;5037521;28;20140;-65
2022/02/28 12:36:07;;;;;;;9.73;6.63;;;15.40;72.30;;;;;;5037733;28;20498;-66
2022/02/28 12:38:38;;;;;;;13.05;7.00;;;15.70;72.80;;;;;;5037818;28;20041;-65
2022/02/28 12:41:14;;;;;;;10.00;6.85;;;15.80;71.30;;;;;;5036635;28;20053;-65
2022/02/28 12:43:44;;;;;;;10.82;6.28;;;15.70;71.30;;;;;;5033024;28;20408;-65
2022/02/28 12:46:12;;;;;;;12.63;7.32;;;16.20;72.40;;;;;;5040963;28;20099;-64
2022/02/28 12:48:43;;;;;;;13.13;8.27;;;16.70;71.50;;;;;;5034920;28;20057;-65
2022/02/28 12:51:14;;;;;;;11.32;6.60;;;18.00;70.80;;;;;;5034302;28;20045;-65
2022/02/28 12:53:43;;;;;;;10.65;6.65;;;20.00;70.20;;;;;;5024422;28;20501;-66
2022/02/28 12:56:21;;;;;;;12.45;6.68;;;21.70;66.50;;;;;;5020708;28;20064;-66